Time;durP1;ratioP1;P1;durP2;ratioP2;P2;SDS_P1;SDS_P2;PMS_P1;PMS_P2;Temp;Humidity;BMP_temperature;BMP_pressure;BME280_temperature;BME280_humidity;BME280_pressure;Samples;Min_cycle;Max_cycle;Signal;HPM_P1;HPM_P2
2022/06/05 00:01:17;;;;;;;8.70;6.77;;;;;;;22.81;64.44;100155.69;5031539;28;20781;-60
2022/06/05 00:04:01;;;;;;;7.13;6.00;;;;;;;22.81;64.39;100152.81;5033367;28;20172;-60
2022/06/05 00:06:58;;;;;;;8.53;6.17;;;;;;;22.82;64.47;100145.81;5032844;28;20469;-60
2022/06/05 00:10:19;;;;;;;8.33;6.20;;;;;;;22.80;64.81;100159.81;5039849;28;20494;-60
2022/06/05 00:13:18;;;;;;;8.10;6.53;;;;;;;22.81;64.50;100154.88;5030599;28;20435;-60
2022/06/05 00:15:43;;;;;;;8.40;6.00;;;;;;;22.80;64.34;100162.69;5033008;28;20522;-60
2022/06/05 00:18:09;;;;;;;7.50;6.40;;;;;;;22.80;64.68;100164.75;5059452;28;20411;-60
2022/06/05 00:20:34;;;;;;;8.03;6.40;;;;;;;22.80;64.91;100168.47;5032818;28;20176;-60
2022/06/05 00:23:00;;;;;;;7.77;5.80;;;;;;;22.80;64.54;100171.34;5033011;28;20177;-60
2022/06/05 00:25:36;;;;;;;7.43;5.90;;;;;;;22.80;64.41;100176.25;5032944;28;20662;-60
2022/06/05 00:28:08;;;;;;;7.80;5.97;;;;;;;22.80;64.49;100182.84;5015011;28;20534;-60
2022/06/05 00:30:40;;;;;;;10.80;6.13;;;;;;;22.80;64.66;100188.63;5031593;28;20461;-60
2022/06/05 00:33:12;;;;;;;12.03;6.43;;;;;;;22.80;64.74;100210.81;5032656;28;20411;-60
2022/06/05 00:36:08;;;;;;;7.27;6.13;;;;;;;22.79;64.54;100200.53;5031268;28;20416;-60
2022/06/05 00:38:44;;;;;;;9.10;5.80;;;;;;;22.79;64.66;100201.38;5042781;28;20958;-60
2022/06/05 00:41:38;;;;;;;7.00;6.30;;;;;;;22.79;64.90;100198.50;5034824;28;20422;-60
2022/06/05 00:44:04;;;;;;;9.13;5.53;;;;;;;22.78;64.69;100199.69;5051964;28;20456;-60
2022/06/05 00:46:29;;;;;;;7.17;6.27;;;;;;;22.79;64.48;100218.63;5052251;28;20885;-60
2022/06/05 00:48:55;;;;;;;6.77;5.73;;;;;;;22.79;64.53;100223.56;5052057;28;20454;-60
2022/06/05 00:51:20;;;;;;;6.30;5.70;;;;;;;22.78;64.46;100239.19;5050984;28;20171;-60
2022/06/05 00:53:46;;;;;;;7.60;6.80;;;;;;;22.78;64.52;100242.88;5046652;28;20191;-60
2022/06/05 00:56:13;;;;;;;6.63;5.57;;;;;;;22.78;64.92;100254.38;5031922;28;20264;-60
2022/06/05 00:58:38;;;;;;;6.77;6.00;;;;;;;22.78;64.92;100242.06;5045456;28;20843;-60
2022/06/05 01:01:04;;;;;;;8.23;6.20;;;;;;;22.78;64.80;100219.03;5051068;28;20414;-60
2022/06/05 01:03:30;;;;;;;8.07;6.57;;;;;;;22.77;64.67;100189.41;5051757;28;20175;-60
2022/06/05 01:05:55;;;;;;;6.50;5.80;;;;;;;22.76;65.01;100153.25;5051613;28;20581;-60
2022/06/05 01:08:21;;;;;;;6.27;5.67;;;;;;;22.75;64.47;100134.34;5051946;28;20203;-60
2022/06/05 01:11:27;;;;;;;12.87;6.07;;;;;;;22.75;64.34;100119.94;5050410;28;20176;-60
2022/06/05 01:14:16;;;;;;;7.00;5.93;;;;;;;22.75;64.40;100114.19;5051801;28;20174;-60
2022/06/05 01:17:03;;;;;;;7.83;5.87;;;;;;;22.74;64.46;100098.16;5054488;28;20417;-60
2022/06/05 01:19:41;;;;;;;7.10;5.37;;;;;;;22.73;64.59;100087.06;5070328;28;20413;-60
2022/06/05 01:22:13;;;;;;;7.80;5.47;;;;;;;22.73;64.86;100073.47;5070308;28;20783;-60
2022/06/05 01:25:07;;;;;;;8.10;5.77;;;;;;;22.73;64.31;100041.81;5048684;28;20418;-60
2022/06/05 01:27:34;;;;;;;5.60;4.90;;;;;;;22.71;64.49;100006.88;5030662;28;20585;-60
2022/06/05 01:30:04;;;;;;;9.60;5.67;;;;;;;22.71;64.51;99997.41;5014099;28;20469;-60
2022/06/05 01:32:42;;;;;;;5.73;5.10;;;;;;;22.71;64.50;99983.84;5030106;28;20415;-60
2022/06/05 01:35:21;;;;;;;6.10;4.50;;;;;;;22.71;64.57;99951.34;5013862;28;20939;-60
2022/06/05 01:37:59;;;;;;;7.13;5.30;;;;;;;22.70;64.38;99941.91;5013978;28;20934;-60
2022/06/05 01:40:33;;;;;;;5.53;5.00;;;;;;;22.70;64.60;99936.16;5015562;28;20395;-60
2022/06/05 01:43:02;;;;;;;8.10;5.80;;;;;;;22.70;64.76;99944.81;5013782;28;20411;-60
2022/06/05 01:45:50;;;;;;;6.57;5.77;;;;;;;22.70;64.29;99927.53;5037889;28;21092;-60
2022/06/05 01:48:20;;;;;;;6.20;5.60;;;;;;;22.70;64.60;99930.41;5050334;28;20500;-60
2022/06/05 01:50:49;;;;;;;6.80;6.10;;;;;;;22.70;65.12;99943.97;5033400;28;20429;-60
2022/06/05 01:53:31;;;;;;;5.80;5.20;;;;;;;22.69;64.28;99928.78;5051554;28;20398;-60
2022/06/05 01:56:00;;;;;;;5.70;5.10;;;;;;;22.70;64.33;99924.66;5029979;28;20415;-60
2022/06/05 01:58:40;;;;;;;7.63;5.47;;;;;;;22.69;64.58;99905.75;5031196;28;20490;-60
2022/06/05 02:01:09;;;;;;;8.97;6.10;;;;;;;22.70;64.28;99884.38;5029898;28;20415;-60
2022/06/05 02:03:39;;;;;;;6.40;5.10;;;;;;;22.69;64.41;99888.50;5046613;28;20442;-60
2022/06/05 02:06:28;;;;;;;6.60;5.10;;;;;;;22.70;64.92;99884.38;5029125;28;20469;-60
2022/06/05 02:08:56;;;;;;;8.63;5.90;;;;;;;22.70;64.90;99872.84;5039981;28;20458;-60
2022/06/05 02:11:23;;;;;;;6.70;5.40;;;;;;;22.69;64.57;99865.47;5049623;28;20407;-60
2022/06/05 02:13:50;;;;;;;6.00;5.40;;;;;;;22.70;64.52;99837.47;5045953;28;20467;-60
2022/06/05 02:16:15;;;;;;;5.53;5.00;;;;;;;22.69;64.30;99822.28;5051208;28;20410;-60
2022/06/05 02:18:41;;;;;;;8.13;5.70;;;;;;;22.69;64.76;99828.06;5069324;28;20859;-60
2022/06/05 02:21:06;;;;;;;6.63;5.00;;;;;;;22.68;64.69;99832.13;5070673;28;20527;-60
2022/06/05 02:23:33;;;;;;;8.37;5.23;;;;;;;22.70;64.49;99837.47;5066140;28;20155;-60
2022/06/05 02:26:00;;;;;;;5.70;4.73;;;;;;;22.71;64.56;99850.63;5030902;28;20184;-60
2022/06/05 02:28:26;;;;;;;6.20;5.30;;;;;;;22.70;64.70;99860.50;5029282;28;20855;-60
2022/06/05 02:30:57;;;;;;;7.37;5.70;;;;;;;22.69;64.66;99885.59;5030701;28;20485;-60
2022/06/05 02:33:33;;;;;;;6.80;5.53;;;;;;;22.70;64.51;99901.63;5030664;28;20179;-60
2022/06/05 02:36:05;;;;;;;7.70;5.10;;;;;;;22.70;64.28;99912.31;5030923;28;20898;-60
2022/06/05 02:38:33;;;;;;;7.00;5.30;;;;;;;22.70;65.01;99930.41;5026097;28;20422;-60
2022/06/05 02:41:24;;;;;;;6.60;5.90;;;;;;;22.70;64.84;99987.97;5050969;28;20448;-60
2022/06/05 02:47:05;;;;;;;6.27;4.90;;;;;;;22.70;64.10;100180.81;5049354;28;20971;-60
2022/06/05 02:49:35;;;;;;;6.23;5.63;;;;;;;22.66;65.28;100197.25;5050590;28;20446;-60
2022/06/05 02:52:04;;;;;;;8.93;5.50;;;;;;;22.61;66.01;100180.38;5050361;28;21052;-60
2022/06/05 02:54:29;;;;;;;7.20;5.77;;;;;;;22.61;65.78;100183.28;5040210;28;20422;-59
2022/06/05 02:56:55;;;;;;;6.47;5.70;;;;;;;22.60;66.39;100173.00;5030317;28;20418;-60
2022/06/05 02:59:21;;;;;;;6.57;5.30;;;;;;;22.59;66.06;100168.47;5029012;28;20180;-57
2022/06/05 03:04:31;;;;;;;6.30;5.27;;;;;;;22.58;66.47;100083.38;5029637;28;20422;-60
2022/06/05 03:06:56;;;;;;;8.93;5.57;;;;;;;22.60;66.63;100106.81;5044252;28;20477;-60
2022/06/05 03:09:22;;;;;;;5.87;5.30;;;;;;;22.61;66.39;100145.84;5049615;28;20698;-60
2022/06/05 03:11:47;;;;;;;8.33;5.70;;;;;;;22.64;66.79;100184.50;5049704;28;20644;-60
2022/06/05 03:14:12;;;;;;;6.87;5.07;;;;;;;22.64;66.61;100193.97;5050364;28;20180;-60
2022/06/05 03:16:38;;;;;;;6.70;5.23;;;;;;;22.64;65.92;100161.47;5054342;28;20181;-60
2022/06/05 03:19:10;;;;;;;7.17;5.80;;;;;;;22.63;66.42;100114.59;5070126;28;20182;-60
2022/06/05 03:21:37;;;;;;;7.10;5.50;;;;;;;22.63;66.52;100091.56;5070193;28;20178;-60
2022/06/05 03:24:03;;;;;;;11.07;6.13;;;;;;;22.63;65.86;100082.94;5055816;28;20473;-60
2022/06/05 03:26:28;;;;;;;8.00;5.50;;;;;;;22.64;66.16;100086.66;5029547;28;20493;-60
2022/06/05 03:28:54;;;;;;;17.20;5.60;;;;;;;22.64;66.75;100078.84;5032738;28;20446;-60
2022/06/05 03:31:19;;;;;;;8.90;6.03;;;;;;;22.65;66.51;100077.63;5032126;28;20180;-60
2022/06/05 03:33:44;;;;;;;6.93;5.50;;;;;;;22.65;66.02;100073.91;5032180;28;20176;-60
2022/06/05 03:36:11;;;;;;;8.53;5.70;;;;;;;22.65;66.66;100076.78;5032355;28;20203;-60
2022/06/05 03:38:36;;;;;;;7.20;5.20;;;;;;;22.65;66.57;100099.81;5036340;28;20636;-60
2022/06/05 03:41:02;;;;;;;7.03;5.60;;;;;;;22.67;66.82;100091.59;5052159;28;20432;-60
2022/06/05 03:43:28;;;;;;;6.20;5.10;;;;;;;22.66;66.47;100085.00;5052336;28;20283;-60
2022/06/05 03:46:05;;;;;;;12.60;5.37;;;;;;;22.65;66.42;100071.84;5051838;28;20191;-60
2022/06/05 03:48:30;;;;;;;9.20;5.30;;;;;;;22.65;66.52;100071.84;5051767;28;20737;-60
2022/06/05 03:50:56;;;;;;;9.50;5.83;;;;;;;22.67;66.42;100094.47;5051986;28;20476;-60
2022/06/05 03:53:21;;;;;;;6.97;5.37;;;;;;;22.67;66.66;100126.13;5051464;28;20175;-60
2022/06/05 03:55:47;;;;;;;6.77;5.80;;;;;;;22.66;66.86;100151.19;5032029;28;20157;-60
2022/06/05 03:58:12;;;;;;;6.40;5.30;;;;;;;22.65;67.13;100161.06;5031655;28;20172;-60
2022/06/05 04:00:38;;;;;;;8.60;5.63;;;;;;;22.65;66.63;100163.94;5040302;28;20180;-60
2022/06/05 04:03:04;;;;;;;6.47;5.13;;;;;;;22.66;66.61;100182.84;5034485;28;20192;-60
2022/06/05 04:05:29;;;;;;;9.07;5.60;;;;;;;22.65;66.38;100192.72;5052973;28;21000;-60
2022/06/05 04:07:55;;;;;;;8.13;6.20;;;;;;;22.65;67.01;100203.41;5051509;28;20211;-60
2022/06/05 04:10:21;;;;;;;6.17;5.07;;;;;;;22.65;66.51;100177.50;5037842;28;20648;-60
2022/06/05 04:12:47;;;;;;;7.57;5.60;;;;;;;22.65;66.35;100134.34;5032953;28;20636;-60
2022/06/05 04:15:12;;;;;;;8.00;5.53;;;;;;;22.63;66.59;100108.03;5033040;28;20635;-59
2022/06/05 04:17:38;;;;;;;6.00;4.90;;;;;;;22.64;66.50;100127.78;5058027;28;20421;-60
2022/06/05 04:20:04;;;;;;;6.30;4.80;;;;;;;22.64;66.58;100133.53;5073070;28;20175;-60
2022/06/05 04:22:29;;;;;;;8.13;5.60;;;;;;;22.64;66.44;100139.28;5073000;28;20179;-61
2022/06/05 04:24:55;;;;;;;6.40;5.17;;;;;;;22.64;66.51;100127.78;5045551;28;20435;-60
2022/06/05 04:27:20;;;;;;;8.17;5.50;;;;;;;22.63;66.37;100123.22;5032747;28;20188;-60
2022/06/05 04:29:46;;;;;;;7.30;5.47;;;;;;;22.64;66.61;100150.81;5032397;28;20188;-60
2022/06/05 04:32:11;;;;;;;7.57;5.40;;;;;;;22.64;66.77;100147.94;5037126;28;20180;-60
2022/06/05 04:34:37;;;;;;;6.53;5.40;;;;;;;22.64;66.49;100150.81;5052552;28;20223;-60
2022/06/05 04:37:02;;;;;;;7.53;4.80;;;;;;;22.64;66.55;100150.81;5052109;28;20643;-60
2022/06/05 04:39:28;;;;;;;6.30;5.47;;;;;;;22.65;66.69;100154.47;5052489;28;20175;-60
2022/06/05 04:41:53;;;;;;;7.50;5.30;;;;;;;22.64;67.13;100152.84;5052368;28;20196;-60
2022/06/05 04:44:19;;;;;;;10.17;5.60;;;;;;;22.64;66.90;100138.47;5051777;28;20209;-60
2022/06/05 04:46:44;;;;;;;6.90;5.07;;;;;;;22.63;66.52;100131.88;5052199;28;20168;-60
2022/06/05 04:49:11;;;;;;;7.30;4.90;;;;;;;22.64;66.34;100145.03;5052191;28;20570;-60
2022/06/05 04:51:36;;;;;;;6.00;5.40;;;;;;;22.64;66.30;100145.03;5052348;28;20175;-60
2022/06/05 04:54:02;;;;;;;6.33;5.23;;;;;;;22.64;66.48;100149.97;5045872;28;20419;-60
2022/06/05 04:56:27;;;;;;;6.00;4.73;;;;;;;22.64;66.44;100153.69;5031046;28;20247;-60
2022/06/05 04:58:53;;;;;;;6.20;5.10;;;;;;;22.64;66.88;100158.59;5032032;28;20251;-60
2022/06/05 05:01:26;;;;;;;7.90;5.47;;;;;;;22.64;66.95;100161.47;5032388;28;20183;-60
2022/06/05 05:03:54;;;;;;;7.07;5.13;;;;;;;22.63;66.45;100163.53;5032098;28;20906;-60
2022/06/05 05:06:19;;;;;;;8.07;5.17;;;;;;;22.63;66.73;100154.09;5031797;28;20475;-60
2022/06/05 05:08:45;;;;;;;8.10;5.80;;;;;;;22.62;66.76;100141.75;5031709;28;20490;-60
2022/06/05 05:11:10;;;;;;;5.90;5.20;;;;;;;22.62;66.70;100120.78;5032111;28;20204;-60
2022/06/05 05:13:35;;;;;;;6.27;5.13;;;;;;;22.62;66.31;100112.97;5035877;28;20171;-60
2022/06/05 05:16:01;;;;;;;7.77;5.30;;;;;;;22.63;66.69;100116.69;5052043;28;20171;-60
2022/06/05 05:18:27;;;;;;;6.33;5.17;;;;;;;22.63;66.71;100123.22;5070438;28;20174;-60
2022/06/05 05:20:52;;;;;;;8.80;5.73;;;;;;;22.64;66.95;100124.91;5071662;28;20591;-60
2022/06/05 05:23:19;;;;;;;7.50;5.30;;;;;;;22.64;67.02;100133.53;5070935;28;20202;-60
2022/06/05 05:25:46;;;;;;;7.50;5.57;;;;;;;22.63;67.00;100137.63;5031954;28;20264;-60
2022/06/05 05:28:11;;;;;;;7.23;5.40;;;;;;;22.64;67.12;100132.69;5031200;28;20558;-60
2022/06/05 05:30:37;;;;;;;7.00;5.23;;;;;;;22.62;66.62;100130.22;5030431;28;20796;-59
2022/06/05 05:33:03;;;;;;;6.77;5.37;;;;;;;22.63;66.85;100119.56;5031546;28;20183;-60
2022/06/05 05:35:28;;;;;;;8.50;4.67;;;;;;;22.64;66.58;100116.28;5031522;28;20191;-60
2022/06/05 05:37:54;;;;;;;7.27;5.00;;;;;;;22.62;66.92;100081.31;5031732;28;20172;-60
2022/06/05 05:43:03;;;;;;;6.60;5.40;;;;;;;22.63;66.52;100059.91;5031358;28;20249;-60
2022/06/05 05:45:29;;;;;;;10.83;5.80;;;;;;;22.63;66.82;100068.56;5034528;28;20423;-60
2022/06/05 05:47:54;;;;;;;6.00;5.00;;;;;;;22.62;66.89;100072.69;5051303;28;20989;-60
2022/06/05 05:50:19;;;;;;;7.00;5.50;;;;;;;22.62;66.79;100072.69;5049231;28;20172;-60
2022/06/05 05:52:45;;;;;;;8.37;5.27;;;;;;;22.63;66.80;100070.63;5051259;28;20175;-60
2022/06/05 05:55:17;;;;;;;7.40;5.50;;;;;;;22.62;67.07;100055.41;5034777;28;20789;-60
2022/06/05 05:57:43;;;;;;;6.07;5.47;;;;;;;22.62;66.51;100043.91;5031205;28;20560;-60
2022/06/05 06:00:10;;;;;;;6.83;5.40;;;;;;;22.61;66.33;100036.50;5031359;28;20403;-60
2022/06/05 06:02:36;;;;;;;7.77;5.47;;;;;;;22.60;66.87;100029.13;5029496;28;20525;-60
2022/06/05 06:05:01;;;;;;;7.20;5.50;;;;;;;22.60;66.59;100025.41;5030946;28;20454;-60
2022/06/05 06:07:27;;;;;;;7.63;5.23;;;;;;;22.61;66.55;100024.16;5032832;28;20224;-60
2022/06/05 06:09:53;;;;;;;7.50;5.23;;;;;;;22.61;67.05;100029.91;5050876;28;20221;-60
2022/06/05 06:12:19;;;;;;;6.00;4.87;;;;;;;22.60;66.53;100011.84;5051181;28;20406;-60
2022/06/05 06:14:44;;;;;;;7.20;5.20;;;;;;;22.61;66.67;100004.03;5033465;28;20203;-60
2022/06/05 06:17:10;;;;;;;6.03;5.20;;;;;;;22.61;66.86;99996.22;5047401;28;20182;-60
2022/06/05 06:19:38;;;;;;;6.60;5.23;;;;;;;22.61;67.11;99990.47;5070737;28;20167;-60
2022/06/05 06:22:04;;;;;;;8.17;5.87;;;;;;;22.61;66.76;99978.94;5070741;28;20685;-61
2022/06/05 06:24:29;;;;;;;8.20;5.90;;;;;;;22.62;66.72;99957.56;5050123;28;20423;-60
2022/06/05 06:26:55;;;;;;;7.20;6.00;;;;;;;22.62;66.71;99969.06;5045398;28;20190;-60
2022/06/05 06:29:20;;;;;;;9.27;6.23;;;;;;;22.62;66.73;99968.28;5050720;28;20212;-60
2022/06/05 06:31:45;;;;;;;6.10;5.20;;;;;;;22.62;66.82;99968.28;5050791;28;20179;-60
2022/06/05 06:34:11;;;;;;;6.70;5.10;;;;;;;22.62;66.76;99982.66;5049461;28;20164;-60
2022/06/05 06:36:37;;;;;;;6.73;4.90;;;;;;;22.62;67.13;99979.78;5051051;28;20187;-60
2022/06/05 06:39:02;;;;;;;6.57;5.33;;;;;;;22.62;67.20;99986.34;5050865;28;20179;-60
2022/06/05 06:41:28;;;;;;;6.40;5.80;;;;;;;22.62;66.98;99994.19;5048939;28;20409;-60
2022/06/05 06:43:53;;;;;;;7.67;5.63;;;;;;;22.61;66.63;99992.50;5050644;28;20211;-60
2022/06/05 06:46:18;;;;;;;12.70;5.40;;;;;;;22.60;67.16;99983.06;5050582;28;20191;-60
2022/06/05 06:48:44;;;;;;;7.20;5.73;;;;;;;22.59;66.66;99987.19;5050515;28;20227;-60
2022/06/05 06:51:10;;;;;;;7.50;4.93;;;;;;;22.60;66.54;99974.44;5050137;28;20631;-60
2022/06/05 06:53:36;;;;;;;7.07;5.83;;;;;;;22.60;67.21;99977.31;5046429;28;20195;-60
2022/06/05 06:56:32;;;;;;;6.67;5.83;;;;;;;22.60;66.97;99983.06;5028598;28;20242;-59
2022/06/05 06:58:58;;;;;;;7.17;5.60;;;;;;;22.61;66.92;99957.97;5027764;28;20942;-60
2022/06/05 07:01:23;;;;;;;7.83;6.40;;;;;;;22.62;67.72;99959.66;5030716;28;20423;-60
2022/06/05 07:03:49;;;;;;;8.73;6.00;;;;;;;22.61;67.41;99955.94;5032637;28;20430;-62
2022/06/05 07:06:14;;;;;;;5.93;4.90;;;;;;;22.61;67.39;99964.56;5032557;28;20355;-60
2022/06/05 07:08:40;;;;;;;6.20;5.60;;;;;;;22.61;67.18;99970.31;5032302;28;20208;-61
2022/06/05 07:11:07;;;;;;;10.30;7.00;;;;;;;22.61;67.41;99978.94;5034558;28;20258;-60
2022/06/05 07:13:32;;;;;;;8.23;6.17;;;;;;;22.62;67.40;99991.28;5041443;28;20265;-60
2022/06/05 07:15:58;;;;;;;6.73;5.33;;;;;;;22.61;67.03;99996.22;5051700;28;20462;-60
2022/06/05 07:18:23;;;;;;;8.47;6.13;;;;;;;22.61;67.63;99990.47;5055175;28;20186;-60
2022/06/05 07:20:49;;;;;;;7.67;6.20;;;;;;;22.60;67.64;99973.59;5036706;28;20180;-60
2022/06/05 07:23:14;;;;;;;7.80;6.00;;;;;;;22.61;67.81;99966.59;5049382;28;20180;-60
2022/06/05 07:26:00;;;;;;;6.77;6.07;;;;;;;22.60;67.46;99953.47;5032533;28;20544;-60
2022/06/05 07:28:25;;;;;;;9.50;6.43;;;;;;;22.60;67.65;99960.06;5032130;28;20220;-60
2022/06/05 07:30:52;;;;;;;7.40;6.60;;;;;;;22.60;68.10;99924.69;5032339;28;20425;-60
2022/06/05 07:33:17;;;;;;;8.00;7.20;;;;;;;22.59;67.87;99909.50;5032617;28;20595;-60
2022/06/05 07:35:43;;;;;;;8.90;6.53;;;;;;;22.60;67.98;99924.69;5033626;28;20411;-60
2022/06/05 07:38:10;;;;;;;13.07;7.67;;;;;;;22.61;67.85;99940.72;5033649;28;20173;-60
2022/06/05 07:40:39;;;;;;;9.00;7.17;;;;;;;22.61;67.46;99952.22;5033450;28;20179;-60
2022/06/05 07:43:05;;;;;;;9.47;7.10;;;;;;;22.60;67.52;99959.22;5033910;28;20419;-60
2022/06/05 07:45:30;;;;;;;9.47;7.20;;;;;;;22.61;67.71;99970.31;5033637;28;20467;-60
2022/06/05 07:47:55;;;;;;;13.13;6.97;;;;;;;22.61;68.27;99978.13;5033382;28;20262;-60
2022/06/05 07:50:21;;;;;;;10.30;7.37;;;;;;;22.59;67.85;99990.06;5033439;28;20536;-60
2022/06/05 07:55:30;;;;;;;9.37;7.40;;;;;;;22.60;68.61;99988.00;5038935;28;20301;-59
2022/06/05 07:57:56;;;;;;;9.23;7.20;;;;;;;22.59;68.89;99984.31;5052268;28;20394;-60
2022/06/05 08:00:23;;;;;;;10.90;7.37;;;;;;;22.59;69.19;99981.44;5052724;28;20172;-59
2022/06/05 08:02:49;;;;;;;10.73;7.57;;;;;;;22.59;69.42;99975.69;5053306;28;20191;-60
2022/06/05 08:05:14;;;;;;;8.63;7.40;;;;;;;22.60;68.92;99974.44;5053129;28;20429;-60
2022/06/05 08:07:39;;;;;;;8.20;7.00;;;;;;;22.61;69.49;99990.47;5052584;28;20223;-60
2022/06/05 08:10:06;;;;;;;9.00;7.20;;;;;;;22.62;69.15;100008.56;5052550;28;20179;-60
2022/06/05 08:12:33;;;;;;;10.13;6.90;;;;;;;22.63;69.16;100015.94;5052694;28;20483;-58
2022/06/05 08:14:58;;;;;;;8.13;7.33;;;;;;;22.62;69.01;100020.06;5052868;28;20430;-57
2022/06/05 08:17:30;;;;;;;7.73;6.83;;;;;;;22.62;69.23;100020.88;5061478;28;20433;-57
2022/06/05 08:19:56;;;;;;;8.97;6.90;;;;;;;22.62;69.29;100012.25;5070539;28;20230;-57
2022/06/05 08:22:22;;;;;;;8.23;7.10;;;;;;;22.64;69.24;100011.84;5034695;28;20461;-57
2022/06/05 08:24:47;;;;;;;8.70;7.90;;;;;;;22.63;69.10;100008.13;5033063;28;20191;-60
2022/06/05 08:27:19;;;;;;;8.50;7.63;;;;;;;22.64;69.70;100035.69;5032904;28;20176;-60
2022/06/05 08:29:44;;;;;;;10.07;7.30;;;;;;;22.64;69.75;100044.31;5033106;28;20602;-60
2022/06/05 08:32:10;;;;;;;11.07;8.27;;;;;;;22.65;70.02;100056.63;5039617;28;20483;-60
2022/06/05 08:34:36;;;;;;;9.40;7.63;;;;;;;22.63;69.96;100074.31;5049842;28;20647;-60
2022/06/05 08:42:48;;;;;;;11.00;7.60;;;;;;;22.63;70.54;100074.31;5052734;28;20927;-60
2022/06/05 08:45:23;;;;;;;8.93;7.73;;;;;;;22.64;70.52;100063.63;5050816;28;20473;-60
2022/06/05 08:47:57;;;;;;;9.43;7.93;;;;;;;22.64;71.17;100050.06;5035424;28;20864;-60
2022/06/05 08:50:41;;;;;;;12.10;7.57;;;;;;;22.65;70.57;100048.84;5051092;28;20988;-60
2022/06/05 08:53:41;;;;;;;8.17;7.13;;;;;;;22.66;71.14;100044.72;5050911;28;20786;-60
2022/06/05 08:56:07;;;;;;;9.57;8.00;;;;;;;22.66;70.52;100044.72;5031276;28;20938;-60
2022/06/05 08:58:48;;;;;;;10.00;7.63;;;;;;;22.65;70.55;100037.31;5032306;28;20442;-60
2022/06/05 09:01:22;;;;;;;8.37;7.43;;;;;;;22.65;70.77;100033.63;5016139;28;20655;-60
2022/06/05 09:04:03;;;;;;;9.60;7.33;;;;;;;22.65;71.24;100024.97;5030692;28;20497;-60
2022/06/05 09:06:37;;;;;;;9.20;7.13;;;;;;;22.65;70.83;100033.63;5031751;28;20474;-60
2022/06/05 09:09:05;;;;;;;8.53;7.23;;;;;;;22.65;70.78;100037.31;5047482;28;20457;-60
2022/06/05 09:11:33;;;;;;;10.13;8.17;;;;;;;22.66;70.48;100027.44;5035303;28;20414;-59
2022/06/05 09:14:08;;;;;;;8.67;6.80;;;;;;;22.67;70.96;100031.16;5051724;28;20422;-59
2022/06/05 09:16:37;;;;;;;10.70;7.60;;;;;;;22.67;71.09;100046.34;5050232;28;20499;-59
2022/06/05 09:19:03;;;;;;;9.43;7.13;;;;;;;22.68;71.19;100045.09;5050533;28;20406;-59
2022/06/05 09:21:52;;;;;;;7.90;7.10;;;;;;;22.68;71.28;100032.78;5050303;28;20468;-59
2022/06/05 09:24:41;;;;;;;10.20;6.90;;;;;;;22.67;71.35;100023.31;5041062;28;20580;-59
2022/06/05 09:27:26;;;;;;;10.40;6.90;;;;;;;22.70;71.12;100011.00;5020147;28;20429;-59
2022/06/05 09:30:02;;;;;;;8.10;7.03;;;;;;;22.69;70.94;100009.34;5030663;28;20813;-59
2022/06/05 09:32:53;;;;;;;9.83;7.10;;;;;;;22.70;70.55;100007.28;5030186;28;20904;-59
2022/06/05 09:35:29;;;;;;;8.33;6.63;;;;;;;22.70;70.59;99995.78;5015555;28;20415;-60
2022/06/05 09:38:06;;;;;;;8.17;7.10;;;;;;;22.71;70.65;99998.25;5030240;28;20914;-59
2022/06/05 09:40:36;;;;;;;10.57;6.73;;;;;;;22.71;70.54;100001.13;5030148;28;20408;-59
2022/06/05 09:43:13;;;;;;;17.20;7.40;;;;;;;22.71;70.02;99989.59;5031058;28;20415;-59
2022/06/05 09:46:20;;;;;;;8.00;6.43;;;;;;;22.71;70.71;99989.59;5029389;28;20527;-59
2022/06/05 09:48:56;;;;;;;8.97;6.73;;;;;;;22.72;70.62;99985.47;5028734;28;20467;-60
2022/06/05 09:51:22;;;;;;;9.63;6.60;;;;;;;22.72;70.61;99990.44;5027982;28;20441;-60
2022/06/05 09:53:54;;;;;;;8.43;6.97;;;;;;;22.71;69.87;99978.09;5032358;28;20757;-59
2022/06/05 09:59:55;;;;;;;8.50;6.73;;;;;;;22.73;69.93;99994.94;5049973;28;20409;-60
2022/06/05 10:02:21;;;;;;;7.07;5.90;;;;;;;22.72;69.62;99987.56;5051045;28;20433;-59
2022/06/05 10:04:46;;;;;;;6.70;5.70;;;;;;;22.73;69.61;99986.31;5051300;28;20489;-59
2022/06/05 10:07:37;;;;;;;8.73;6.10;;;;;;;22.74;69.67;99993.72;5050721;28;20223;-59
2022/06/05 10:10:13;;;;;;;8.20;6.33;;;;;;;22.73;69.66;99984.25;5050510;28;20728;-60
2022/06/05 10:12:50;;;;;;;7.53;5.73;;;;;;;22.74;69.40;99980.16;5049069;28;20417;-60
2022/06/05 10:15:16;;;;;;;9.17;6.23;;;;;;;22.77;69.21;99976.41;5049601;28;20421;-59
2022/06/05 10:17:41;;;;;;;7.87;6.10;;;;;;;22.77;70.08;99982.19;5063308;28;20418;-61
2022/06/05 10:20:13;;;;;;;9.73;6.60;;;;;;;22.78;70.22;99969.41;5070770;28;20171;-60
2022/06/05 10:23:08;;;;;;;8.20;6.80;;;;;;;22.81;69.79;99970.63;5070820;28;20247;-60
2022/06/05 10:25:55;;;;;;;8.43;5.93;;;;;;;22.82;70.08;99972.31;5032758;28;20783;-59
2022/06/05 10:28:24;;;;;;;9.07;6.90;;;;;;;22.89;70.63;99978.84;5049758;28;20859;-59
2022/06/05 10:31:07;;;;;;;8.30;6.77;;;;;;;22.92;70.72;99980.06;5048498;28;20430;-59
2022/06/05 10:33:53;;;;;;;9.00;6.50;;;;;;;22.87;70.75;99974.75;5049181;28;20418;-59
2022/06/05 10:37:13;;;;;;;8.40;6.77;;;;;;;22.90;71.21;99968.13;5051718;28;20967;-59
2022/06/05 10:39:50;;;;;;;11.27;7.03;;;;;;;22.89;71.73;99973.09;5049893;28;20448;-59
2022/06/05 10:42:44;;;;;;;10.97;6.90;;;;;;;22.87;71.63;99969.78;5041834;28;20883;-59
2022/06/05 10:45:19;;;;;;;12.07;6.73;;;;;;;22.88;70.90;99965.66;5031586;28;20410;-58
2022/06/05 10:47:56;;;;;;;9.93;6.43;;;;;;;22.90;70.87;99963.22;5032520;28;20501;-59
2022/06/05 10:50:28;;;;;;;10.50;6.30;;;;;;;22.92;71.80;99966.47;5031669;28;20925;-59
2022/06/05 10:53:16;;;;;;;9.90;6.53;;;;;;;22.93;71.80;99956.59;5017093;28;20395;-59
2022/06/05 10:55:44;;;;;;;11.73;6.83;;;;;;;22.91;71.62;99950.44;5034782;28;20767;-59
2022/06/05 10:58:31;;;;;;;9.87;6.90;;;;;;;22.92;71.49;99951.28;5034382;28;20402;-59
2022/06/05 11:01:02;;;;;;;7.63;5.50;;;;;;;22.96;71.11;99950.00;5033387;28;20505;-59
2022/06/05 11:03:44;;;;;;;11.30;6.63;;;;;;;22.98;71.44;99943.84;5028993;28;20425;-59
2022/06/05 11:06:52;;;;;;;9.03;6.30;;;;;;;22.96;70.67;99944.25;5034123;28;20481;-59
2022/06/05 11:09:48;;;;;;;14.13;6.53;;;;;;;22.98;71.03;99969.75;5034157;28;20447;-58
2022/06/05 11:15:22;;;;;;;11.70;6.30;;;;;;;22.99;70.92;99974.25;5032925;28;20827;-59
2022/06/05 11:18:12;;;;;;;14.37;5.80;;;;;;;22.97;71.10;99980.44;5060791;28;20421;-59
2022/06/05 11:20:39;;;;;;;8.87;6.10;;;;;;;22.96;71.07;99977.97;5072690;28;20504;-59
2022/06/05 11:23:34;;;;;;;9.97;5.63;;;;;;;23.02;70.46;99982.88;5072748;28;20916;-59
2022/06/05 11:26:26;;;;;;;8.57;5.70;;;;;;;23.02;70.13;99990.72;5034078;28;20586;-59
2022/06/05 11:29:01;;;;;;;6.27;5.10;;;;;;;23.05;70.41;100007.97;5032817;28;20581;-59
2022/06/05 11:31:57;;;;;;;6.10;4.93;;;;;;;23.00;70.08;99990.28;5034112;28;20510;-59
2022/06/05 11:34:44;;;;;;;9.17;4.10;;;;;;;22.95;70.21;99999.38;5032045;28;21013;-59
2022/06/05 11:37:36;;;;;;;7.20;4.20;;;;;;;22.93;70.10;100002.66;5032663;28;20419;-60
2022/06/05 11:40:09;;;;;;;8.67;3.80;;;;;;;22.90;70.39;99997.75;5035592;28;20442;-59
2022/06/05 11:42:39;;;;;;;7.23;4.00;;;;;;;22.89;70.63;99992.41;5032687;28;20494;-59
2022/06/05 11:45:09;;;;;;;10.47;4.13;;;;;;;22.89;70.46;100001.03;5016090;28;20789;-59
2022/06/05 11:47:50;;;;;;;5.60;3.90;;;;;;;22.89;70.09;100001.03;5031029;28;20492;-59
2022/06/05 11:50:52;;;;;;;5.70;3.17;;;;;;;22.92;70.12;100000.22;5032658;28;20506;-59
2022/06/05 11:53:36;;;;;;;6.37;2.90;;;;;;;22.90;70.31;99994.88;5049589;28;20437;-59
2022/06/05 11:56:29;;;;;;;5.47;3.47;;;;;;;22.89;70.20;100001.88;5049707;28;20853;-59
2022/06/05 11:59:17;;;;;;;5.43;3.00;;;;;;;22.90;70.05;100008.44;5051052;28;20411;-59
2022/06/05 12:01:46;;;;;;;3.63;2.60;;;;;;;22.90;70.19;100006.41;5049500;28;20430;-59
2022/06/05 12:04:33;;;;;;;3.77;2.40;;;;;;;22.90;69.91;100014.19;5049839;28;20410;-59
2022/06/05 12:06:59;;;;;;;5.63;2.50;;;;;;;22.90;70.57;100006.41;5051009;28;20553;-59
2022/06/05 12:09:27;;;;;;;4.77;3.00;;;;;;;22.90;70.65;100003.50;5050289;28;20533;-59
2022/06/05 12:12:05;;;;;;;2.80;2.10;;;;;;;22.90;70.43;100002.69;5051236;28;20519;-59